sensor_id;sensor_type;location;lat;lon;timestamp;temperature;humidity
13598;DHT22;38563;54.258;12.574;2023-05-07T00:01:34;7.30;99.90
13598;DHT22;38563;54.258;12.574;2023-05-07T00:04:02;7.30;99.90
13598;DHT22;38563;54.258;12.574;2023-05-07T00:06:29;7.30;99.90
13598;DHT22;38563;54.258;12.574;2023-05-07T00:08:56;7.30;99.90
13598;DHT22;38563;54.258;12.574;2023-05-07T00:11:24;7.20;99.90
13598;DHT22;38563;54.258;12.574;2023-05-07T00:13:52;7.20;99.90
13598;DHT22;38563;54.258;12.574;2023-05-07T00:16:18;7.20;99.90
13598;DHT22;38563;54.258;12.574;2023-05-07T00:18:45;7.20;99.90
13598;DHT22;38563;54.258;12.574;2023-05-07T00:21:12;7.20;99.90
13598;DHT22;38563;54.258;12.574;2023-05-07T00:23:39;7.10;99.90
13598;DHT22;38563;54.258;12.574;2023-05-07T00:26:05;7.20;99.90
13598;DHT22;38563;54.258;12.574;2023-05-07T00:28:33;7.10;99.90
13598;DHT22;38563;54.258;12.574;2023-05-07T00:31:00;7.10;99.90
13598;DHT22;38563;54.258;12.574;2023-05-07T00:33:27;7.20;99.90
13598;DHT22;38563;54.258;12.574;2023-05-07T00:35:53;7.10;99.90
13598;DHT22;38563;54.258;12.574;2023-05-07T00:38:20;7.20;99.90
13598;DHT22;38563;54.258;12.574;2023-05-07T00:40:47;7.10;99.90
13598;DHT22;38563;54.258;12.574;2023-05-07T00:43:14;7.10;99.90
13598;DHT22;38563;54.258;12.574;2023-05-07T00:45:42;7.10;99.90
13598;DHT22;38563;54.258;12.574;2023-05-07T00:48:08;7.10;99.90
13598;DHT22;38563;54.258;12.574;2023-05-07T00:50:35;7.10;99.90
13598;DHT22;38563;54.258;12.574;2023-05-07T00:53:02;7.10;99.90
13598;DHT22;38563;54.258;12.574;2023-05-07T00:55:29;7.10;99.90
13598;DHT22;38563;54.258;12.574;2023-05-07T00:57:56;7.10;99.90
13598;DHT22;38563;54.258;12.574;2023-05-07T01:00:23;7.00;99.90
13598;DHT22;38563;54.258;12.574;2023-05-07T01:02:52;7.00;99.90
13598;DHT22;38563;54.258;12.574;2023-05-07T01:05:22;7.00;99.90
13598;DHT22;38563;54.258;12.574;2023-05-07T01:07:50;7.00;99.90
13598;DHT22;38563;54.258;12.574;2023-05-07T01:10:19;7.00;99.90
13598;DHT22;38563;54.258;12.574;2023-05-07T01:12:46;7.00;99.90
13598;DHT22;38563;54.258;12.574;2023-05-07T01:15:14;7.00;99.90
13598;DHT22;38563;54.258;12.574;2023-05-07T01:17:42;7.00;99.90
13598;DHT22;38563;54.258;12.574;2023-05-07T01:20:19;7.00;99.90
13598;DHT22;38563;54.258;12.574;2023-05-07T01:22:49;7.00;99.90
13598;DHT22;38563;54.258;12.574;2023-05-07T01:25:16;7.10;99.90
13598;DHT22;38563;54.258;12.574;2023-05-07T01:27:48;7.10;99.90
13598;DHT22;38563;54.258;12.574;2023-05-07T01:30:16;7.10;99.90
13598;DHT22;38563;54.258;12.574;2023-05-07T01:32:48;7.10;99.90
13598;DHT22;38563;54.258;12.574;2023-05-07T01:35:18;7.10;99.90
13598;DHT22;38563;54.258;12.574;2023-05-07T01:37:47;7.10;99.90
13598;DHT22;38563;54.258;12.574;2023-05-07T01:40:14;7.00;99.90
13598;DHT22;38563;54.258;12.574;2023-05-07T01:42:42;7.00;99.90
13598;DHT22;38563;54.258;12.574;2023-05-07T01:45:10;6.90;99.90
13598;DHT22;38563;54.258;12.574;2023-05-07T01:47:37;6.90;99.90
13598;DHT22;38563;54.258;12.574;2023-05-07T01:50:06;6.70;99.90
13598;DHT22;38563;54.258;12.574;2023-05-07T01:52:34;6.60;99.90
13598;DHT22;38563;54.258;12.574;2023-05-07T01:55:02;6.50;99.90
13598;DHT22;38563;54.258;12.574;2023-05-07T01:57:30;6.40;99.90
13598;DHT22;38563;54.258;12.574;2023-05-07T01:59:57;6.40;99.90
13598;DHT22;38563;54.258;12.574;2023-05-07T02:02:23;6.40;99.90
13598;DHT22;38563;54.258;12.574;2023-05-07T02:04:52;6.30;99.90
13598;DHT22;38563;54.258;12.574;2023-05-07T02:07:19;6.20;99.90
13598;DHT22;38563;54.258;12.574;2023-05-07T02:09:47;6.20;99.90
13598;DHT22;38563;54.258;12.574;2023-05-07T02:12:15;6.10;99.90
13598;DHT22;38563;54.258;12.574;2023-05-07T02:14:42;6.00;99.90
13598;DHT22;38563;54.258;12.574;2023-05-07T02:17:08;6.00;99.90
13598;DHT22;38563;54.258;12.574;2023-05-07T02:19:36;5.90;99.90
13598;DHT22;38563;54.258;12.574;2023-05-07T02:22:02;5.90;99.90
13598;DHT22;38563;54.258;12.574;2023-05-07T02:24:30;5.80;99.90
13598;DHT22;38563;54.258;12.574;2023-05-07T02:26:57;5.70;99.90
13598;DHT22;38563;54.258;12.574;2023-05-07T02:29:25;5.70;99.90
13598;DHT22;38563;54.258;12.574;2023-05-07T02:31:53;5.60;99.90
13598;DHT22;38563;54.258;12.574;2023-05-07T02:34:20;5.50;99.90
13598;DHT22;38563;54.258;12.574;2023-05-07T02:36:47;5.50;99.90
13598;DHT22;38563;54.258;12.574;2023-05-07T02:39:18;5.50;99.90
13598;DHT22;38563;54.258;12.574;2023-05-07T02:41:45;5.40;99.90
13598;DHT22;38563;54.258;12.574;2023-05-07T02:44:12;5.30;99.90
13598;DHT22;38563;54.258;12.574;2023-05-07T02:46:40;5.30;99.90
13598;DHT22;38563;54.258;12.574;2023-05-07T02:49:10;5.30;99.90
13598;DHT22;38563;54.258;12.574;2023-05-07T02:51:36;5.20;99.90
13598;DHT22;38563;54.258;12.574;2023-05-07T02:54:08;5.20;99.90
13598;DHT22;38563;54.258;12.574;2023-05-07T02:56:35;5.20;99.90
13598;DHT22;38563;54.258;12.574;2023-05-07T02:59:02;5.10;99.90
13598;DHT22;38563;54.258;12.574;2023-05-07T03:01:33;5.10;99.90
13598;DHT22;38563;54.258;12.574;2023-05-07T03:04:06;5.10;99.90
13598;DHT22;38563;54.258;12.574;2023-05-07T03:06:33;5.10;99.90
13598;DHT22;38563;54.258;12.574;2023-05-07T03:09:00;5.00;99.90
13598;DHT22;38563;54.258;12.574;2023-05-07T03:11:27;5.10;99.90
13598;DHT22;38563;54.258;12.574;2023-05-07T03:13:54;5.00;99.90
13598;DHT22;38563;54.258;12.574;2023-05-07T03:16:21;5.00;99.90
13598;DHT22;38563;54.258;12.574;2023-05-07T03:18:48;5.00;99.90
13598;DHT22;38563;54.258;12.574;2023-05-07T03:21:16;4.90;99.90
13598;DHT22;38563;54.258;12.574;2023-05-07T03:23:43;4.90;99.90
13598;DHT22;38563;54.258;12.574;2023-05-07T03:26:10;4.90;99.90
13598;DHT22;38563;54.258;12.574;2023-05-07T03:28:37;4.80;99.90
13598;DHT22;38563;54.258;12.574;2023-05-07T03:31:07;4.80;99.90
13598;DHT22;38563;54.258;12.574;2023-05-07T03:33:34;4.80;99.90
13598;DHT22;38563;54.258;12.574;2023-05-07T03:36:01;4.80;99.90
13598;DHT22;38563;54.258;12.574;2023-05-07T03:38:29;4.80;99.90
13598;DHT22;38563;54.258;12.574;2023-05-07T03:40:57;4.80;99.90
13598;DHT22;38563;54.258;12.574;2023-05-07T03:43:24;4.80;99.90
13598;DHT22;38563;54.258;12.574;2023-05-07T03:45:58;4.80;99.90
13598;DHT22;38563;54.258;12.574;2023-05-07T03:48:27;4.90;99.90
13598;DHT22;38563;54.258;12.574;2023-05-07T03:50:57;4.90;99.90
13598;DHT22;38563;54.258;12.574;2023-05-07T03:53:29;4.90;99.90
13598;DHT22;38563;54.258;12.574;2023-05-07T03:55:56;4.90;99.90
13598;DHT22;38563;54.258;12.574;2023-05-07T03:58:23;5.00;99.90
13598;DHT22;38563;54.258;12.574;2023-05-07T04:00:51;5.20;99.90
13598;DHT22;38563;54.258;12.574;2023-05-07T04:03:23;5.30;99.90
13598;DHT22;38563;54.258;12.574;2023-05-07T04:05:51;5.40;99.90
13598;DHT22;38563;54.258;12.574;2023-05-07T04:08:17;5.60;99.90
13598;DHT22;38563;54.258;12.574;2023-05-07T04:10:54;5.50;99.90
13598;DHT22;38563;54.258;12.574;2023-05-07T04:13:21;5.60;99.90
13598;DHT22;38563;54.258;12.574;2023-05-07T04:15:47;5.60;99.90
13598;DHT22;38563;54.258;12.574;2023-05-07T04:18:17;5.60;99.90
13598;DHT22;38563;54.258;12.574;2023-05-07T04:20:47;5.60;99.90
13598;DHT22;38563;54.258;12.574;2023-05-07T04:23:15;5.60;99.90
13598;DHT22;38563;54.258;12.574;2023-05-07T04:25:41;5.60;99.90
13598;DHT22;38563;54.258;12.574;2023-05-07T04:28:26;5.70;99.90
13598;DHT22;38563;54.258;12.574;2023-05-07T04:30:53;5.70;99.90
13598;DHT22;38563;54.258;12.574;2023-05-07T04:33:21;5.70;99.90
13598;DHT22;38563;54.258;12.574;2023-05-07T04:35:49;5.70;99.90
13598;DHT22;38563;54.258;12.574;2023-05-07T04:38:16;5.80;99.90
13598;DHT22;38563;54.258;12.574;2023-05-07T04:40:45;5.80;99.90
13598;DHT22;38563;54.258;12.574;2023-05-07T04:43:15;6.00;99.90
13598;DHT22;38563;54.258;12.574;2023-05-07T04:45:49;6.00;99.90
13598;DHT22;38563;54.258;12.574;2023-05-07T04:48:16;6.20;99.90
13598;DHT22;38563;54.258;12.574;2023-05-07T04:50:47;6.30;99.90
13598;DHT22;38563;54.258;12.574;2023-05-07T04:53:14;6.40;99.90
13598;DHT22;38563;54.258;12.574;2023-05-07T04:55:41;6.40;99.90
13598;DHT22;38563;54.258;12.574;2023-05-07T04:58:08;6.60;99.90
13598;DHT22;38563;54.258;12.574;2023-05-07T05:00:37;6.70;99.90
13598;DHT22;38563;54.258;12.574;2023-05-07T05:03:07;6.80;99.90
13598;DHT22;38563;54.258;12.574;2023-05-07T05:05:36;6.90;99.90
13598;DHT22;38563;54.258;12.574;2023-05-07T05:08:03;7.00;99.90
13598;DHT22;38563;54.258;12.574;2023-05-07T05:10:31;7.00;99.90
13598;DHT22;38563;54.258;12.574;2023-05-07T05:12:58;7.20;99.90
13598;DHT22;38563;54.258;12.574;2023-05-07T05:15:25;7.30;99.90
13598;DHT22;38563;54.258;12.574;2023-05-07T05:17:52;7.30;99.90
13598;DHT22;38563;54.258;12.574;2023-05-07T05:20:20;7.50;99.90
13598;DHT22;38563;54.258;12.574;2023-05-07T05:22:48;7.60;99.90
13598;DHT22;38563;54.258;12.574;2023-05-07T05:25:15;7.70;99.90
13598;DHT22;38563;54.258;12.574;2023-05-07T05:27:41;7.80;99.90
13598;DHT22;38563;54.258;12.574;2023-05-07T05:30:09;7.90;99.90
13598;DHT22;38563;54.258;12.574;2023-05-07T05:32:37;8.00;99.90
13598;DHT22;38563;54.258;12.574;2023-05-07T05:35:05;8.00;99.90
13598;DHT22;38563;54.258;12.574;2023-05-07T05:37:33;8.10;99.90
13598;DHT22;38563;54.258;12.574;2023-05-07T05:40:03;8.20;99.90
13598;DHT22;38563;54.258;12.574;2023-05-07T05:42:30;8.20;99.90
13598;DHT22;38563;54.258;12.574;2023-05-07T05:44:57;8.40;99.90
13598;DHT22;38563;54.258;12.574;2023-05-07T05:47:25;8.50;99.90
13598;DHT22;38563;54.258;12.574;2023-05-07T05:49:54;8.50;99.90
13598;DHT22;38563;54.258;12.574;2023-05-07T05:52:21;8.60;99.90
13598;DHT22;38563;54.258;12.574;2023-05-07T05:54:50;8.70;99.90
13598;DHT22;38563;54.258;12.574;2023-05-07T05:57:18;8.80;99.90
13598;DHT22;38563;54.258;12.574;2023-05-07T05:59:46;8.80;99.90
13598;DHT22;38563;54.258;12.574;2023-05-07T06:02:13;8.90;99.90
13598;DHT22;38563;54.258;12.574;2023-05-07T06:04:39;9.00;99.90
13598;DHT22;38563;54.258;12.574;2023-05-07T06:07:08;9.20;99.90
13598;DHT22;38563;54.258;12.574;2023-05-07T06:09:35;9.20;99.90
13598;DHT22;38563;54.258;12.574;2023-05-07T06:12:04;9.40;99.90
13598;DHT22;38563;54.258;12.574;2023-05-07T06:14:31;9.40;99.90
13598;DHT22;38563;54.258;12.574;2023-05-07T06:16:58;9.50;99.90
13598;DHT22;38563;54.258;12.574;2023-05-07T06:19:26;9.60;99.90
13598;DHT22;38563;54.258;12.574;2023-05-07T06:21:54;9.60;99.90
13598;DHT22;38563;54.258;12.574;2023-05-07T06:24:22;9.80;99.90
13598;DHT22;38563;54.258;12.574;2023-05-07T06:26:50;9.80;99.90
13598;DHT22;38563;54.258;12.574;2023-05-07T06:29:18;9.90;99.90
13598;DHT22;38563;54.258;12.574;2023-05-07T06:31:45;10.00;99.90
13598;DHT22;38563;54.258;12.574;2023-05-07T06:34:11;10.00;99.90
13598;DHT22;38563;54.258;12.574;2023-05-07T06:36:40;10.10;99.90
13598;DHT22;38563;54.258;12.574;2023-05-07T06:39:16;10.20;99.90
13598;DHT22;38563;54.258;12.574;2023-05-07T06:41:42;10.30;99.90
13598;DHT22;38563;54.258;12.574;2023-05-07T06:44:21;10.50;99.90
13598;DHT22;38563;54.258;12.574;2023-05-07T06:46:58;10.60;99.90
13598;DHT22;38563;54.258;12.574;2023-05-07T06:49:25;10.70;99.90
13598;DHT22;38563;54.258;12.574;2023-05-07T06:51:52;10.80;99.90
13598;DHT22;38563;54.258;12.574;2023-05-07T06:54:19;10.90;99.90
13598;DHT22;38563;54.258;12.574;2023-05-07T06:56:46;11.00;99.90
13598;DHT22;38563;54.258;12.574;2023-05-07T06:59:13;11.10;99.90
13598;DHT22;38563;54.258;12.574;2023-05-07T07:01:42;11.10;99.90
13598;DHT22;38563;54.258;12.574;2023-05-07T07:04:10;11.10;99.90
13598;DHT22;38563;54.258;12.574;2023-05-07T07:06:39;11.20;99.90
13598;DHT22;38563;54.258;12.574;2023-05-07T07:09:09;11.20;99.90
13598;DHT22;38563;54.258;12.574;2023-05-07T07:11:36;11.30;99.90
13598;DHT22;38563;54.258;12.574;2023-05-07T07:14:05;11.30;99.90
13598;DHT22;38563;54.258;12.574;2023-05-07T07:16:39;11.40;99.90
13598;DHT22;38563;54.258;12.574;2023-05-07T07:19:07;11.50;99.90
13598;DHT22;38563;54.258;12.574;2023-05-07T07:21:35;11.50;99.90
13598;DHT22;38563;54.258;12.574;2023-05-07T07:24:02;11.60;99.90
13598;DHT22;38563;54.258;12.574;2023-05-07T07:26:28;11.70;99.90
13598;DHT22;38563;54.258;12.574;2023-05-07T07:28:55;11.70;99.90
13598;DHT22;38563;54.258;12.574;2023-05-07T07:31:23;11.90;99.90
13598;DHT22;38563;54.258;12.574;2023-05-07T07:33:50;11.90;99.90
13598;DHT22;38563;54.258;12.574;2023-05-07T07:36:18;11.90;99.90
13598;DHT22;38563;54.258;12.574;2023-05-07T07:38:45;12.00;99.90
13598;DHT22;38563;54.258;12.574;2023-05-07T07:41:13;12.20;99.90
13598;DHT22;38563;54.258;12.574;2023-05-07T07:43:40;12.20;99.90
13598;DHT22;38563;54.258;12.574;2023-05-07T07:46:07;12.20;99.90
13598;DHT22;38563;54.258;12.574;2023-05-07T07:48:34;12.30;99.90
13598;DHT22;38563;54.258;12.574;2023-05-07T07:51:01;12.40;99.90
13598;DHT22;38563;54.258;12.574;2023-05-07T07:53:30;12.40;99.90
13598;DHT22;38563;54.258;12.574;2023-05-07T07:55:57;12.30;99.90
13598;DHT22;38563;54.258;12.574;2023-05-07T07:58:26;12.30;99.90
13598;DHT22;38563;54.258;12.574;2023-05-07T08:00:53;12.40;99.90
13598;DHT22;38563;54.258;12.574;2023-05-07T08:03:21;12.50;99.90
13598;DHT22;38563;54.258;12.574;2023-05-07T08:05:52;12.50;99.90
13598;DHT22;38563;54.258;12.574;2023-05-07T08:08:19;12.60;99.90
13598;DHT22;38563;54.258;12.574;2023-05-07T08:10:47;12.70;99.90
13598;DHT22;38563;54.258;12.574;2023-05-07T08:13:21;12.70;99.90
13598;DHT22;38563;54.258;12.574;2023-05-07T08:15:48;12.80;99.90
13598;DHT22;38563;54.258;12.574;2023-05-07T08:18:15;13.00;99.90
13598;DHT22;38563;54.258;12.574;2023-05-07T08:20:44;13.00;99.90
13598;DHT22;38563;54.258;12.574;2023-05-07T08:23:15;13.10;99.90
13598;DHT22;38563;54.258;12.574;2023-05-07T08:25:43;13.20;99.90
13598;DHT22;38563;54.258;12.574;2023-05-07T08:28:11;14.00;99.90
13598;DHT22;38563;54.258;12.574;2023-05-07T08:30:39;14.70;99.90
13598;DHT22;38563;54.258;12.574;2023-05-07T08:33:06;15.20;99.90
13598;DHT22;38563;54.258;12.574;2023-05-07T08:35:32;15.40;99.90
13598;DHT22;38563;54.258;12.574;2023-05-07T08:37:59;15.60;99.90
13598;DHT22;38563;54.258;12.574;2023-05-07T08:40:26;15.70;99.90
13598;DHT22;38563;54.258;12.574;2023-05-07T08:42:56;16.00;99.90
13598;DHT22;38563;54.258;12.574;2023-05-07T08:45:26;16.00;99.90
13598;DHT22;38563;54.258;12.574;2023-05-07T08:47:58;16.10;99.90
13598;DHT22;38563;54.258;12.574;2023-05-07T08:50:29;16.10;99.90
13598;DHT22;38563;54.258;12.574;2023-05-07T08:52:57;16.30;99.90
13598;DHT22;38563;54.258;12.574;2023-05-07T08:55:26;16.20;99.90
13598;DHT22;38563;54.258;12.574;2023-05-07T08:57:55;15.70;99.90
13598;DHT22;38563;54.258;12.574;2023-05-07T09:00:22;15.20;99.90
13598;DHT22;38563;54.258;12.574;2023-05-07T09:02:53;15.20;99.90
13598;DHT22;38563;54.258;12.574;2023-05-07T09:05:20;15.10;99.90
13598;DHT22;38563;54.258;12.574;2023-05-07T09:07:47;15.40;99.90
13598;DHT22;38563;54.258;12.574;2023-05-07T09:10:15;15.60;99.90
13598;DHT22;38563;54.258;12.574;2023-05-07T09:12:46;15.60;99.90
13598;DHT22;38563;54.258;12.574;2023-05-07T09:15:14;15.60;99.90
13598;DHT22;38563;54.258;12.574;2023-05-07T09:17:43;15.30;99.90
13598;DHT22;38563;54.258;12.574;2023-05-07T09:20:11;15.20;99.90
13598;DHT22;38563;54.258;12.574;2023-05-07T09:22:40;15.50;99.90
13598;DHT22;38563;54.258;12.574;2023-05-07T09:25:10;15.60;99.90
13598;DHT22;38563;54.258;12.574;2023-05-07T09:27:38;15.90;99.90
13598;DHT22;38563;54.258;12.574;2023-05-07T09:30:06;15.80;99.90
13598;DHT22;38563;54.258;12.574;2023-05-07T09:32:35;15.80;99.90
13598;DHT22;38563;54.258;12.574;2023-05-07T09:35:04;15.80;99.90
13598;DHT22;38563;54.258;12.574;2023-05-07T09:37:33;15.70;99.90
13598;DHT22;38563;54.258;12.574;2023-05-07T09:39:59;15.50;99.90
13598;DHT22;38563;54.258;12.574;2023-05-07T09:42:29;15.80;99.90
13598;DHT22;38563;54.258;12.574;2023-05-07T09:44:59;16.00;99.90
13598;DHT22;38563;54.258;12.574;2023-05-07T09:47:32;15.90;99.90
13598;DHT22;38563;54.258;12.574;2023-05-07T09:50:05;15.60;99.90
13598;DHT22;38563;54.258;12.574;2023-05-07T09:52:36;15.40;99.90
13598;DHT22;38563;54.258;12.574;2023-05-07T09:55:07;15.20;99.90
13598;DHT22;38563;54.258;12.574;2023-05-07T09:57:34;15.10;99.90
13598;DHT22;38563;54.258;12.574;2023-05-07T10:00:07;15.50;99.90
13598;DHT22;38563;54.258;12.574;2023-05-07T10:02:46;15.80;99.90
13598;DHT22;38563;54.258;12.574;2023-05-07T10:05:15;15.90;99.90
13598;DHT22;38563;54.258;12.574;2023-05-07T10:07:45;16.10;99.90
13598;DHT22;38563;54.258;12.574;2023-05-07T10:10:14;16.20;99.90
13598;DHT22;38563;54.258;12.574;2023-05-07T10:12:43;16.50;99.90
13598;DHT22;38563;54.258;12.574;2023-05-07T10:15:20;16.30;99.90
13598;DHT22;38563;54.258;12.574;2023-05-07T10:17:51;16.30;99.90
13598;DHT22;38563;54.258;12.574;2023-05-07T10:20:20;16.50;99.90
13598;DHT22;38563;54.258;12.574;2023-05-07T10:22:49;16.70;99.90
13598;DHT22;38563;54.258;12.574;2023-05-07T10:25:25;16.90;99.90
13598;DHT22;38563;54.258;12.574;2023-05-07T10:27:56;17.00;99.90
13598;DHT22;38563;54.258;12.574;2023-05-07T10:30:34;16.90;99.90
13598;DHT22;38563;54.258;12.574;2023-05-07T10:33:07;17.00;99.90
13598;DHT22;38563;54.258;12.574;2023-05-07T10:35:40;17.10;99.90
13598;DHT22;38563;54.258;12.574;2023-05-07T10:38:09;16.90;99.90
13598;DHT22;38563;54.258;12.574;2023-05-07T10:40:39;16.70;99.90
13598;DHT22;38563;54.258;12.574;2023-05-07T10:43:08;16.50;99.90
13598;DHT22;38563;54.258;12.574;2023-05-07T10:46:11;16.70;99.90
13598;DHT22;38563;54.258;12.574;2023-05-07T10:49:06;16.40;99.90
13598;DHT22;38563;54.258;12.574;2023-05-07T10:51:42;16.40;99.90
13598;DHT22;38563;54.258;12.574;2023-05-07T10:54:24;16.70;99.90
13598;DHT22;38563;54.258;12.574;2023-05-07T10:57:33;17.10;99.90
13598;DHT22;38563;54.258;12.574;2023-05-07T11:00:41;17.00;99.90
13598;DHT22;38563;54.258;12.574;2023-05-07T11:03:11;16.80;99.90
13598;DHT22;38563;54.258;12.574;2023-05-07T11:05:46;16.70;99.90
13598;DHT22;38563;54.258;12.574;2023-05-07T11:08:21;16.40;99.90
13598;DHT22;38563;54.258;12.574;2023-05-07T11:11:04;16.30;99.90
13598;DHT22;38563;54.258;12.574;2023-05-07T11:13:43;16.40;99.90
13598;DHT22;38563;54.258;12.574;2023-05-07T11:16:17;16.60;99.90
13598;DHT22;38563;54.258;12.574;2023-05-07T11:18:48;17.00;99.90
13598;DHT22;38563;54.258;12.574;2023-05-07T11:21:34;17.00;99.90
13598;DHT22;38563;54.258;12.574;2023-05-07T11:24:19;16.20;99.90
13598;DHT22;38563;54.258;12.574;2023-05-07T11:26:58;16.10;99.90
13598;DHT22;38563;54.258;12.574;2023-05-07T11:29:27;15.90;99.90
13598;DHT22;38563;54.258;12.574;2023-05-07T11:32:00;16.00;99.90
13598;DHT22;38563;54.258;12.574;2023-05-07T11:34:32;15.80;99.90
13598;DHT22;38563;54.258;12.574;2023-05-07T11:36:59;15.90;99.90
13598;DHT22;38563;54.258;12.574;2023-05-07T11:39:48;16.10;99.90
13598;DHT22;38563;54.258;12.574;2023-05-07T11:42:27;16.00;99.90
13598;DHT22;38563;54.258;12.574;2023-05-07T11:44:54;15.70;99.90
13598;DHT22;38563;54.258;12.574;2023-05-07T11:47:21;15.90;99.90
13598;DHT22;38563;54.258;12.574;2023-05-07T11:49:49;16.20;99.90
13598;DHT22;38563;54.258;12.574;2023-05-07T11:52:16;16.50;99.90
13598;DHT22;38563;54.258;12.574;2023-05-07T11:54:48;16.70;99.90
13598;DHT22;38563;54.258;12.574;2023-05-07T11:57:15;16.80;99.90
13598;DHT22;38563;54.258;12.574;2023-05-07T11:59:43;16.80;99.90
13598;DHT22;38563;54.258;12.574;2023-05-07T12:02:10;16.70;99.90
13598;DHT22;38563;54.258;12.574;2023-05-07T12:04:40;16.60;99.90
13598;DHT22;38563;54.258;12.574;2023-05-07T12:07:11;16.60;99.90
13598;DHT22;38563;54.258;12.574;2023-05-07T12:09:38;16.70;99.90
13598;DHT22;38563;54.258;12.574;2023-05-07T12:12:05;16.70;99.90
13598;DHT22;38563;54.258;12.574;2023-05-07T12:14:32;16.60;99.90
13598;DHT22;38563;54.258;12.574;2023-05-07T12:17:01;16.20;99.90
13598;DHT22;38563;54.258;12.574;2023-05-07T12:19:28;16.40;99.90
13598;DHT22;38563;54.258;12.574;2023-05-07T12:21:55;16.60;99.90
13598;DHT22;38563;54.258;12.574;2023-05-07T12:24:22;16.70;99.90
13598;DHT22;38563;54.258;12.574;2023-05-07T12:26:49;16.90;99.90
13598;DHT22;38563;54.258;12.574;2023-05-07T12:29:16;17.00;99.90
13598;DHT22;38563;54.258;12.574;2023-05-07T12:31:43;17.00;99.90
13598;DHT22;38563;54.258;12.574;2023-05-07T12:34:12;17.10;99.90
13598;DHT22;38563;54.258;12.574;2023-05-07T12:36:39;17.10;99.90
13598;DHT22;38563;54.258;12.574;2023-05-07T12:39:06;16.70;99.90
13598;DHT22;38563;54.258;12.574;2023-05-07T12:41:43;16.40;99.90
13598;DHT22;38563;54.258;12.574;2023-05-07T12:44:18;16.50;99.90
13598;DHT22;38563;54.258;12.574;2023-05-07T12:46:46;16.80;99.90
13598;DHT22;38563;54.258;12.574;2023-05-07T12:49:14;16.80;99.90
13598;DHT22;38563;54.258;12.574;2023-05-07T12:51:41;17.00;99.90
13598;DHT22;38563;54.258;12.574;2023-05-07T12:54:08;16.90;99.90
13598;DHT22;38563;54.258;12.574;2023-05-07T12:56:35;16.90;99.90
13598;DHT22;38563;54.258;12.574;2023-05-07T12:59:02;16.90;99.90
13598;DHT22;38563;54.258;12.574;2023-05-07T13:01:30;16.80;99.90
13598;DHT22;38563;54.258;12.574;2023-05-07T13:04:00;16.90;99.90
13598;DHT22;38563;54.258;12.574;2023-05-07T13:06:30;16.90;99.90
13598;DHT22;38563;54.258;12.574;2023-05-07T13:08:57;16.90;99.90
13598;DHT22;38563;54.258;12.574;2023-05-07T13:11:23;16.90;99.90
13598;DHT22;38563;54.258;12.574;2023-05-07T13:13:50;16.90;99.90
13598;DHT22;38563;54.258;12.574;2023-05-07T13:16:17;16.90;99.90
13598;DHT22;38563;54.258;12.574;2023-05-07T13:18:44;17.10;99.90
13598;DHT22;38563;54.258;12.574;2023-05-07T13:21:11;17.30;99.90
13598;DHT22;38563;54.258;12.574;2023-05-07T13:23:40;17.30;99.90
13598;DHT22;38563;54.258;12.574;2023-05-07T13:26:07;17.00;99.90
13598;DHT22;38563;54.258;12.574;2023-05-07T13:28:33;16.90;99.90
13598;DHT22;38563;54.258;12.574;2023-05-07T13:31:00;17.10;99.90
13598;DHT22;38563;54.258;12.574;2023-05-07T13:33:27;17.00;99.90
13598;DHT22;38563;54.258;12.574;2023-05-07T13:35:54;17.00;99.90
13598;DHT22;38563;54.258;12.574;2023-05-07T13:38:22;17.20;99.90
13598;DHT22;38563;54.258;12.574;2023-05-07T13:40:50;17.30;99.90
13598;DHT22;38563;54.258;12.574;2023-05-07T13:43:17;17.50;99.90
13598;DHT22;38563;54.258;12.574;2023-05-07T13:45:44;17.80;99.90
13598;DHT22;38563;54.258;12.574;2023-05-07T13:48:10;17.70;99.90
13598;DHT22;38563;54.258;12.574;2023-05-07T13:50:37;17.70;99.90
13598;DHT22;38563;54.258;12.574;2023-05-07T13:53:04;17.90;99.90
13598;DHT22;38563;54.258;12.574;2023-05-07T13:55:31;18.10;99.90
13598;DHT22;38563;54.258;12.574;2023-05-07T13:58:00;17.90;99.90
13598;DHT22;38563;54.258;12.574;2023-05-07T14:00:28;18.10;99.90
13598;DHT22;38563;54.258;12.574;2023-05-07T14:02:55;17.80;99.90
13598;DHT22;38563;54.258;12.574;2023-05-07T14:05:23;17.70;99.90
13598;DHT22;38563;54.258;12.574;2023-05-07T14:07:50;17.30;99.90
13598;DHT22;38563;54.258;12.574;2023-05-07T14:10:17;17.00;99.90
13598;DHT22;38563;54.258;12.574;2023-05-07T14:12:44;17.00;99.90
13598;DHT22;38563;54.258;12.574;2023-05-07T14:15:14;17.20;99.90
13598;DHT22;38563;54.258;12.574;2023-05-07T14:17:41;17.30;99.90
13598;DHT22;38563;54.258;12.574;2023-05-07T14:20:09;17.40;99.90
13598;DHT22;38563;54.258;12.574;2023-05-07T14:22:36;17.00;99.90
13598;DHT22;38563;54.258;12.574;2023-05-07T14:25:03;16.80;99.90
13598;DHT22;38563;54.258;12.574;2023-05-07T14:27:30;16.90;99.90
13598;DHT22;38563;54.258;12.574;2023-05-07T14:29:56;17.00;99.90
13598;DHT22;38563;54.258;12.574;2023-05-07T14:32:24;17.10;99.90
13598;DHT22;38563;54.258;12.574;2023-05-07T14:34:51;17.00;99.90
13598;DHT22;38563;54.258;12.574;2023-05-07T14:37:18;16.80;99.90
13598;DHT22;38563;54.258;12.574;2023-05-07T14:39:45;16.90;99.90
13598;DHT22;38563;54.258;12.574;2023-05-07T14:42:12;16.90;99.90
13598;DHT22;38563;54.258;12.574;2023-05-07T14:44:38;16.90;99.90
13598;DHT22;38563;54.258;12.574;2023-05-07T14:47:07;16.50;99.90
13598;DHT22;38563;54.258;12.574;2023-05-07T14:49:35;16.60;99.90
13598;DHT22;38563;54.258;12.574;2023-05-07T14:52:01;16.80;99.90
13598;DHT22;38563;54.258;12.574;2023-05-07T14:54:28;16.60;99.90
13598;DHT22;38563;54.258;12.574;2023-05-07T14:56:55;16.80;99.90
13598;DHT22;38563;54.258;12.574;2023-05-07T14:59:22;16.90;99.90
13598;DHT22;38563;54.258;12.574;2023-05-07T15:01:50;17.20;99.90
13598;DHT22;38563;54.258;12.574;2023-05-07T15:04:17;17.30;99.90
13598;DHT22;38563;54.258;12.574;2023-05-07T15:06:45;17.10;99.90
13598;DHT22;38563;54.258;12.574;2023-05-07T15:09:12;17.10;99.90
13598;DHT22;38563;54.258;12.574;2023-05-07T15:11:39;17.00;99.90
13598;DHT22;38563;54.258;12.574;2023-05-07T15:14:06;16.90;99.90
13598;DHT22;38563;54.258;12.574;2023-05-07T15:16:33;16.80;99.90
13598;DHT22;38563;54.258;12.574;2023-05-07T15:19:00;16.60;99.90
13598;DHT22;38563;54.258;12.574;2023-05-07T15:21:27;16.70;99.90
13598;DHT22;38563;54.258;12.574;2023-05-07T15:23:55;16.80;99.90
13598;DHT22;38563;54.258;12.574;2023-05-07T15:26:22;17.00;99.90
13598;DHT22;38563;54.258;12.574;2023-05-07T15:28:48;16.90;99.90
13598;DHT22;38563;54.258;12.574;2023-05-07T15:31:15;16.60;99.90
13598;DHT22;38563;54.258;12.574;2023-05-07T15:33:42;16.60;99.90